sensor_id;sensor_type;location;lat;lon;timestamp;pressure;altitude;pressure_sealevel;temperature;humidity
33506;BME280;19843;51.040;13.782;2024-03-25T00:01:16;98797.53;;;6.74;83.84
33506;BME280;19843;51.040;13.782;2024-03-25T00:03:41;98802.31;;;6.89;83.44
33506;BME280;19843;51.040;13.782;2024-03-25T00:06:08;98786.88;;;7.36;81.87
33506;BME280;19843;51.040;13.782;2024-03-25T00:08:33;98799.63;;;6.93;83.12
33506;BME280;19843;51.040;13.782;2024-03-25T00:11:00;98796.88;;;7.25;82.29
33506;BME280;19843;51.040;13.782;2024-03-25T00:13:25;98791.25;;;7.37;81.74
33506;BME280;19843;51.040;13.782;2024-03-25T00:15:52;98791.78;;;7.11;82.80
33506;BME280;19843;51.040;13.782;2024-03-25T00:18:17;98801.47;;;7.49;82.47
33506;BME280;19843;51.040;13.782;2024-03-25T00:20:44;98803.06;;;7.34;82.29
33506;BME280;19843;51.040;13.782;2024-03-25T00:23:09;98812.56;;;7.33;84.57
33506;BME280;19843;51.040;13.782;2024-03-25T00:25:37;98817.75;;;6.75;86.32
33506;BME280;19843;51.040;13.782;2024-03-25T00:28:02;98823.50;;;6.82;88.35
33506;BME280;19843;51.040;13.782;2024-03-25T00:30:29;98827.88;;;6.55;87.88
33506;BME280;19843;51.040;13.782;2024-03-25T00:32:55;98819.25;;;6.72;87.84
33506;BME280;19843;51.040;13.782;2024-03-25T00:35:21;98817.09;;;6.25;88.50
33506;BME280;19843;51.040;13.782;2024-03-25T00:37:47;98822.28;;;6.67;87.94
33506;BME280;19843;51.040;13.782;2024-03-25T00:40:14;98820.81;;;6.57;87.87
33506;BME280;19843;51.040;13.782;2024-03-25T00:42:39;98827.53;;;6.56;89.34
33506;BME280;19843;51.040;13.782;2024-03-25T00:45:06;98813.72;;;6.72;87.76
33506;BME280;19843;51.040;13.782;2024-03-25T00:47:32;98820.88;;;6.73;88.55
33506;BME280;19843;51.040;13.782;2024-03-25T00:49:58;98825.59;;;6.45;92.35
33506;BME280;19843;51.040;13.782;2024-03-25T00:52:24;98826.97;;;6.51;88.06
33506;BME280;19843;51.040;13.782;2024-03-25T00:54:50;98819.72;;;6.74;88.92
33506;BME280;19843;51.040;13.782;2024-03-25T00:57:16;98813.16;;;6.95;88.81
33506;BME280;19843;51.040;13.782;2024-03-25T00:59:43;98814.91;;;6.31;90.79
33506;BME280;19843;51.040;13.782;2024-03-25T01:02:09;98817.16;;;6.13;93.29
33506;BME280;19843;51.040;13.782;2024-03-25T01:04:35;98824.22;;;6.51;92.66
33506;BME280;19843;51.040;13.782;2024-03-25T01:07:01;98814.25;;;7.53;85.30
33506;BME280;19843;51.040;13.782;2024-03-25T01:09:28;98820.34;;;7.75;83.15
33506;BME280;19843;51.040;13.782;2024-03-25T01:11:55;98812.56;;;7.80;82.46
33506;BME280;19843;51.040;13.782;2024-03-25T01:14:21;98805.09;;;8.55;79.77
33506;BME280;19843;51.040;13.782;2024-03-25T01:16:47;98808.56;;;8.32;79.37
33506;BME280;19843;51.040;13.782;2024-03-25T01:19:13;98817.09;;;8.59;80.59
33506;BME280;19843;51.040;13.782;2024-03-25T01:21:39;98812.41;;;7.41;85.80
33506;BME280;19843;51.040;13.782;2024-03-25T01:24:05;98818.44;;;7.94;82.01
33506;BME280;19843;51.040;13.782;2024-03-25T01:26:31;98824.28;;;7.74;82.40
33506;BME280;19843;51.040;13.782;2024-03-25T01:28:57;98827.06;;;8.25;80.55
33506;BME280;19843;51.040;13.782;2024-03-25T01:31:22;98835.94;;;7.48;83.61
33506;BME280;19843;51.040;13.782;2024-03-25T01:33:49;98836.69;;;7.60;83.38
33506;BME280;19843;51.040;13.782;2024-03-25T01:36:14;98824.63;;;7.88;83.36
33506;BME280;19843;51.040;13.782;2024-03-25T01:38:46;98834.56;;;7.26;85.33
33506;BME280;19843;51.040;13.782;2024-03-25T01:41:13;98840.06;;;7.54;85.27
33506;BME280;19843;51.040;13.782;2024-03-25T01:43:40;98835.22;;;7.35;84.97
33506;BME280;19843;51.040;13.782;2024-03-25T01:46:06;98843.41;;;7.00;84.93
33506;BME280;19843;51.040;13.782;2024-03-25T01:48:33;98849.22;;;6.66;88.01
33506;BME280;19843;51.040;13.782;2024-03-25T01:50:59;98851.88;;;7.35;85.48
33506;BME280;19843;51.040;13.782;2024-03-25T01:53:27;98861.19;;;7.42;82.63
33506;BME280;19843;51.040;13.782;2024-03-25T01:55:55;98865.59;;;7.00;83.22
33506;BME280;19843;51.040;13.782;2024-03-25T01:58:24;98865.66;;;6.87;85.11
33506;BME280;19843;51.040;13.782;2024-03-25T02:00:52;98872.91;;;6.92;85.38
33506;BME280;19843;51.040;13.782;2024-03-25T02:03:20;98867.09;;;7.25;85.33
33506;BME280;19843;51.040;13.782;2024-03-25T02:05:45;98875.63;;;7.04;84.75
33506;BME280;19843;51.040;13.782;2024-03-25T02:08:12;98871.66;;;7.33;83.03
33506;BME280;19843;51.040;13.782;2024-03-25T02:10:38;98878.53;;;6.80;85.89
33506;BME280;19843;51.040;13.782;2024-03-25T02:13:05;98882.94;;;6.97;83.48
33506;BME280;19843;51.040;13.782;2024-03-25T02:15:30;98879.19;;;6.89;84.83
33506;BME280;19843;51.040;13.782;2024-03-25T02:17:57;98876.41;;;6.89;84.22
33506;BME280;19843;51.040;13.782;2024-03-25T02:20:22;98875.94;;;7.15;83.31
33506;BME280;19843;51.040;13.782;2024-03-25T02:22:49;98872.94;;;7.67;81.91
33506;BME280;19843;51.040;13.782;2024-03-25T02:25:16;98867.28;;;6.88;86.52
33506;BME280;19843;51.040;13.782;2024-03-25T02:27:42;98872.13;;;7.07;85.14
33506;BME280;19843;51.040;13.782;2024-03-25T02:30:09;98866.88;;;6.74;86.21
33506;BME280;19843;51.040;13.782;2024-03-25T02:32:38;98875.41;;;7.25;83.92
33506;BME280;19843;51.040;13.782;2024-03-25T02:35:07;98874.72;;;7.44;83.47
33506;BME280;19843;51.040;13.782;2024-03-25T02:37:35;98872.97;;;7.83;82.89
33506;BME280;19843;51.040;13.782;2024-03-25T02:40:02;98873.28;;;8.49;78.55
33506;BME280;19843;51.040;13.782;2024-03-25T02:42:31;98877.88;;;7.58;80.57
33506;BME280;19843;51.040;13.782;2024-03-25T02:44:58;98875.63;;;8.31;79.51
33506;BME280;19843;51.040;13.782;2024-03-25T02:47:25;98884.63;;;8.24;79.97
33506;BME280;19843;51.040;13.782;2024-03-25T02:49:51;98879.16;;;8.63;79.22
33506;BME280;19843;51.040;13.782;2024-03-25T02:52:18;98892.47;;;8.03;80.32
33506;BME280;19843;51.040;13.782;2024-03-25T02:54:44;98890.09;;;8.20;81.43
33506;BME280;19843;51.040;13.782;2024-03-25T02:57:11;98890.84;;;7.38;82.01
33506;BME280;19843;51.040;13.782;2024-03-25T02:59:36;98900.09;;;7.58;83.09
33506;BME280;19843;51.040;13.782;2024-03-25T03:02:03;98892.81;;;8.17;81.14
33506;BME280;19843;51.040;13.782;2024-03-25T03:04:28;98888.53;;;7.72;81.94
33506;BME280;19843;51.040;13.782;2024-03-25T03:06:56;98892.44;;;7.39;83.03
33506;BME280;19843;51.040;13.782;2024-03-25T03:09:22;98899.06;;;8.45;79.83
33506;BME280;19843;51.040;13.782;2024-03-25T03:11:48;98907.34;;;8.26;79.89
33506;BME280;19843;51.040;13.782;2024-03-25T03:14:14;98909.16;;;8.89;78.06
33506;BME280;19843;51.040;13.782;2024-03-25T03:16:40;98901.22;;;8.20;80.32
33506;BME280;19843;51.040;13.782;2024-03-25T03:19:05;98904.47;;;8.07;81.25
33506;BME280;19843;51.040;13.782;2024-03-25T03:21:32;98911.13;;;8.53;79.09
33506;BME280;19843;51.040;13.782;2024-03-25T03:23:58;98911.75;;;7.95;80.26
33506;BME280;19843;51.040;13.782;2024-03-25T03:26:24;98921.81;;;8.35;78.66
33506;BME280;19843;51.040;13.782;2024-03-25T03:28:55;98925.97;;;7.78;80.27
33506;BME280;19843;51.040;13.782;2024-03-25T03:31:21;98932.06;;;8.31;78.59
33506;BME280;19843;51.040;13.782;2024-03-25T03:33:48;98930.31;;;8.07;78.58
33506;BME280;19843;51.040;13.782;2024-03-25T03:36:19;98927.97;;;7.93;79.62
33506;BME280;19843;51.040;13.782;2024-03-25T03:38:45;98936.66;;;8.75;77.21
33506;BME280;19843;51.040;13.782;2024-03-25T03:41:12;98935.22;;;8.14;79.60
33506;BME280;19843;51.040;13.782;2024-03-25T03:43:38;98944.19;;;7.91;78.77
33506;BME280;19843;51.040;13.782;2024-03-25T03:46:04;98943.38;;;7.75;80.15
33506;BME280;19843;51.040;13.782;2024-03-25T03:48:30;98960.16;;;7.94;78.07
33506;BME280;19843;51.040;13.782;2024-03-25T03:50:57;98947.50;;;8.13;78.66
33506;BME280;19843;51.040;13.782;2024-03-25T03:53:22;98951.00;;;8.10;78.06
33506;BME280;19843;51.040;13.782;2024-03-25T03:55:56;98960.25;;;8.14;77.54
33506;BME280;19843;51.040;13.782;2024-03-25T03:58:23;98953.34;;;8.39;77.44
33506;BME280;19843;51.040;13.782;2024-03-25T04:00:50;98953.06;;;7.97;78.12
33506;BME280;19843;51.040;13.782;2024-03-25T04:03:16;98955.81;;;8.60;76.33
33506;BME280;19843;51.040;13.782;2024-03-25T04:05:42;98963.09;;;8.33;76.49
33506;BME280;19843;51.040;13.782;2024-03-25T04:08:08;98960.25;;;8.14;77.04
33506;BME280;19843;51.040;13.782;2024-03-25T04:10:35;98962.19;;;8.61;76.00
33506;BME280;19843;51.040;13.782;2024-03-25T04:13:01;98966.78;;;8.06;77.69
33506;BME280;19843;51.040;13.782;2024-03-25T04:15:28;98965.53;;;8.03;77.92
33506;BME280;19843;51.040;13.782;2024-03-25T04:17:53;98982.00;;;7.96;78.42
33506;BME280;19843;51.040;13.782;2024-03-25T04:20:20;98974.22;;;8.33;76.92
33506;BME280;19843;51.040;13.782;2024-03-25T04:22:46;98980.41;;;8.11;77.86
33506;BME280;19843;51.040;13.782;2024-03-25T04:25:12;98995.09;;;8.75;74.58
33506;BME280;19843;51.040;13.782;2024-03-25T04:27:40;98988.03;;;8.14;76.96
33506;BME280;19843;51.040;13.782;2024-03-25T04:30:07;99001.19;;;8.01;76.23
33506;BME280;19843;51.040;13.782;2024-03-25T04:32:34;98986.06;;;7.99;76.64
33506;BME280;19843;51.040;13.782;2024-03-25T04:35:01;98994.66;;;8.09;74.60
33506;BME280;19843;51.040;13.782;2024-03-25T04:37:27;98993.22;;;8.00;74.44
33506;BME280;19843;51.040;13.782;2024-03-25T04:39:54;99011.50;;;8.01;74.36
33506;BME280;19843;51.040;13.782;2024-03-25T04:42:20;99008.28;;;7.99;76.35
33506;BME280;19843;51.040;13.782;2024-03-25T04:44:45;99022.88;;;7.80;76.07
33506;BME280;19843;51.040;13.782;2024-03-25T04:47:11;99026.88;;;8.26;75.46
33506;BME280;19843;51.040;13.782;2024-03-25T04:49:37;99039.03;;;7.90;75.71
33506;BME280;19843;51.040;13.782;2024-03-25T04:52:04;99039.22;;;7.69;75.68
33506;BME280;19843;51.040;13.782;2024-03-25T04:54:30;99038.72;;;8.23;74.29
33506;BME280;19843;51.040;13.782;2024-03-25T04:56:55;99042.88;;;7.85;75.54
33506;BME280;19843;51.040;13.782;2024-03-25T04:59:21;99050.75;;;7.83;75.34
33506;BME280;19843;51.040;13.782;2024-03-25T05:01:47;99041.97;;;7.81;75.50
33506;BME280;19843;51.040;13.782;2024-03-25T05:04:12;99048.47;;;8.17;74.82
33506;BME280;19843;51.040;13.782;2024-03-25T05:06:38;99057.97;;;7.72;75.69
33506;BME280;19843;51.040;13.782;2024-03-25T05:09:03;99051.41;;;8.36;73.92
33506;BME280;19843;51.040;13.782;2024-03-25T05:11:29;99061.44;;;7.97;75.65
33506;BME280;19843;51.040;13.782;2024-03-25T05:13:55;99065.09;;;7.85;76.20
33506;BME280;19843;51.040;13.782;2024-03-25T05:16:20;99071.22;;;8.07;75.74
33506;BME280;19843;51.040;13.782;2024-03-25T05:18:46;99063.88;;;7.99;75.11
33506;BME280;19843;51.040;13.782;2024-03-25T05:21:12;99068.00;;;7.61;75.69
33506;BME280;19843;51.040;13.782;2024-03-25T05:23:37;99070.22;;;8.43;74.91
33506;BME280;19843;51.040;13.782;2024-03-25T05:26:03;99076.75;;;7.63;75.41
33506;BME280;19843;51.040;13.782;2024-03-25T05:28:28;99084.72;;;7.92;74.68
33506;BME280;19843;51.040;13.782;2024-03-25T05:30:54;99082.41;;;7.94;74.59
33506;BME280;19843;51.040;13.782;2024-03-25T05:33:20;99093.56;;;7.82;76.07
33506;BME280;19843;51.040;13.782;2024-03-25T05:35:45;99089.53;;;8.08;74.00
33506;BME280;19843;51.040;13.782;2024-03-25T05:38:11;99097.09;;;8.23;75.36
33506;BME280;19843;51.040;13.782;2024-03-25T05:40:36;99092.75;;;7.54;77.20
33506;BME280;19843;51.040;13.782;2024-03-25T05:43:02;99103.03;;;7.65;76.48
33506;BME280;19843;51.040;13.782;2024-03-25T05:45:28;99098.47;;;7.73;76.06
33506;BME280;19843;51.040;13.782;2024-03-25T05:47:53;99094.69;;;7.65;76.21
33506;BME280;19843;51.040;13.782;2024-03-25T05:50:19;99096.75;;;7.68;74.30
33506;BME280;19843;51.040;13.782;2024-03-25T05:52:45;99115.00;;;7.82;74.69
33506;BME280;19843;51.040;13.782;2024-03-25T05:55:10;99116.81;;;7.90;74.09
33506;BME280;19843;51.040;13.782;2024-03-25T05:57:36;99109.03;;;7.67;74.10
33506;BME280;19843;51.040;13.782;2024-03-25T06:00:02;99115.06;;;7.98;73.91
33506;BME280;19843;51.040;13.782;2024-03-25T06:02:28;99121.75;;;7.96;74.63
33506;BME280;19843;51.040;13.782;2024-03-25T06:04:54;99124.94;;;7.83;74.29
33506;BME280;19843;51.040;13.782;2024-03-25T06:07:20;99124.78;;;7.63;74.13
33506;BME280;19843;51.040;13.782;2024-03-25T06:09:45;99125.16;;;7.50;73.97
33506;BME280;19843;51.040;13.782;2024-03-25T06:12:11;99122.81;;;7.92;72.77
33506;BME280;19843;51.040;13.782;2024-03-25T06:14:36;99125.03;;;8.42;71.21
33506;BME280;19843;51.040;13.782;2024-03-25T06:17:02;99132.78;;;7.65;73.03
33506;BME280;19843;51.040;13.782;2024-03-25T06:19:28;99144.94;;;8.16;72.72
33506;BME280;19843;51.040;13.782;2024-03-25T06:21:53;99139.50;;;8.20;73.01
33506;BME280;19843;51.040;13.782;2024-03-25T06:24:19;99135.41;;;8.02;73.88
33506;BME280;19843;51.040;13.782;2024-03-25T06:26:45;99142.91;;;7.73;73.72
33506;BME280;19843;51.040;13.782;2024-03-25T06:29:10;99151.38;;;8.05;73.08
33506;BME280;19843;51.040;13.782;2024-03-25T06:31:36;99142.16;;;8.16;73.70
33506;BME280;19843;51.040;13.782;2024-03-25T06:34:20;99149.00;;;8.19;73.29
33506;BME280;19843;51.040;13.782;2024-03-25T06:36:45;99155.47;;;8.51;72.09
33506;BME280;19843;51.040;13.782;2024-03-25T06:39:11;99155.63;;;8.42;71.50
33506;BME280;19843;51.040;13.782;2024-03-25T06:41:37;99161.88;;;8.11;73.06
33506;BME280;19843;51.040;13.782;2024-03-25T06:44:02;99156.38;;;8.27;73.53
33506;BME280;19843;51.040;13.782;2024-03-25T06:46:28;99171.47;;;7.86;73.53
33506;BME280;19843;51.040;13.782;2024-03-25T06:48:53;99172.13;;;8.07;73.47
33506;BME280;19843;51.040;13.782;2024-03-25T06:51:19;99172.03;;;8.19;72.38
33506;BME280;19843;51.040;13.782;2024-03-25T06:53:45;99171.88;;;8.56;71.53
33506;BME280;19843;51.040;13.782;2024-03-25T06:56:10;99186.38;;;8.93;69.19
33506;BME280;19843;51.040;13.782;2024-03-25T06:58:36;99175.28;;;8.21;72.18
33506;BME280;19843;51.040;13.782;2024-03-25T07:01:06;99177.50;;;8.16;71.18
33506;BME280;19843;51.040;13.782;2024-03-25T07:03:32;99179.59;;;8.63;69.88
33506;BME280;19843;51.040;13.782;2024-03-25T07:05:58;99194.13;;;8.00;71.12
33506;BME280;19843;51.040;13.782;2024-03-25T07:08:24;99182.81;;;8.21;70.21
33506;BME280;19843;51.040;13.782;2024-03-25T07:10:50;99190.50;;;8.40;70.23
33506;BME280;19843;51.040;13.782;2024-03-25T07:13:15;99205.13;;;8.37;69.81
33506;BME280;19843;51.040;13.782;2024-03-25T07:15:42;99201.09;;;8.94;69.50
33506;BME280;19843;51.040;13.782;2024-03-25T07:18:08;99210.50;;;8.89;69.32
33506;BME280;19843;51.040;13.782;2024-03-25T07:20:35;99208.25;;;8.95;68.88
33506;BME280;19843;51.040;13.782;2024-03-25T07:23:00;99212.03;;;8.71;70.41
33506;BME280;19843;51.040;13.782;2024-03-25T07:25:26;99215.97;;;8.70;69.53
33506;BME280;19843;51.040;13.782;2024-03-25T07:27:52;99215.66;;;9.54;67.54
33506;BME280;19843;51.040;13.782;2024-03-25T07:30:18;99223.25;;;8.75;70.48
33506;BME280;19843;51.040;13.782;2024-03-25T07:32:44;99224.75;;;8.56;69.81
33506;BME280;19843;51.040;13.782;2024-03-25T07:35:10;99226.50;;;9.08;68.91
33506;BME280;19843;51.040;13.782;2024-03-25T07:37:35;99231.44;;;8.83;68.77
33506;BME280;19843;51.040;13.782;2024-03-25T07:40:01;99232.88;;;9.24;68.72
33506;BME280;19843;51.040;13.782;2024-03-25T07:42:27;99245.44;;;9.18;69.24
33506;BME280;19843;51.040;13.782;2024-03-25T07:44:53;99235.72;;;9.44;67.40
33506;BME280;19843;51.040;13.782;2024-03-25T07:47:19;99240.59;;;8.84;69.02
33506;BME280;19843;51.040;13.782;2024-03-25T07:49:44;99247.09;;;8.60;68.67
33506;BME280;19843;51.040;13.782;2024-03-25T07:52:10;99249.00;;;8.71;69.27
33506;BME280;19843;51.040;13.782;2024-03-25T07:54:35;99244.13;;;9.12;67.66
33506;BME280;19843;51.040;13.782;2024-03-25T07:57:01;99254.25;;;9.36;67.88
33506;BME280;19843;51.040;13.782;2024-03-25T07:59:27;99258.38;;;9.11;68.10
33506;BME280;19843;51.040;13.782;2024-03-25T08:01:52;99261.41;;;8.74;69.17
33506;BME280;19843;51.040;13.782;2024-03-25T08:04:18;99263.53;;;8.65;68.19
33506;BME280;19843;51.040;13.782;2024-03-25T08:06:44;99261.59;;;8.53;67.65
33506;BME280;19843;51.040;13.782;2024-03-25T08:09:09;99263.50;;;9.24;66.98
33506;BME280;19843;51.040;13.782;2024-03-25T08:11:35;99267.31;;;9.83;64.38
33506;BME280;19843;51.040;13.782;2024-03-25T08:14:01;99276.00;;;9.31;66.05
33506;BME280;19843;51.040;13.782;2024-03-25T08:16:26;99277.59;;;9.00;66.07
33506;BME280;19843;51.040;13.782;2024-03-25T08:18:52;99276.66;;;10.10;64.06
33506;BME280;19843;51.040;13.782;2024-03-25T08:21:18;99277.94;;;9.30;66.08
33506;BME280;19843;51.040;13.782;2024-03-25T08:23:44;99270.94;;;9.52;64.82
33506;BME280;19843;51.040;13.782;2024-03-25T08:26:10;99274.50;;;9.84;63.48
33506;BME280;19843;51.040;13.782;2024-03-25T08:28:36;99269.03;;;9.72;64.89
33506;BME280;19843;51.040;13.782;2024-03-25T08:31:02;99275.69;;;9.67;63.90
33506;BME280;19843;51.040;13.782;2024-03-25T08:33:27;99275.94;;;10.13;63.78
33506;BME280;19843;51.040;13.782;2024-03-25T08:35:54;99272.41;;;9.97;64.32
33506;BME280;19843;51.040;13.782;2024-03-25T08:38:19;99282.88;;;9.84;63.42
33506;BME280;19843;51.040;13.782;2024-03-25T08:40:45;99276.34;;;9.61;65.08
33506;BME280;19843;51.040;13.782;2024-03-25T08:43:10;99290.81;;;9.19;65.33
33506;BME280;19843;51.040;13.782;2024-03-25T08:45:36;99294.78;;;9.49;65.68
33506;BME280;19843;51.040;13.782;2024-03-25T08:48:02;99293.84;;;9.30;65.91
33506;BME280;19843;51.040;13.782;2024-03-25T08:50:27;99288.00;;;9.35;65.42
33506;BME280;19843;51.040;13.782;2024-03-25T08:52:53;99303.59;;;9.36;64.34
33506;BME280;19843;51.040;13.782;2024-03-25T08:55:18;99298.22;;;8.83;65.72
33506;BME280;19843;51.040;13.782;2024-03-25T08:57:44;99306.34;;;9.52;64.99
33506;BME280;19843;51.040;13.782;2024-03-25T09:00:10;99303.66;;;9.71;64.47
33506;BME280;19843;51.040;13.782;2024-03-25T09:02:36;99316.59;;;9.47;65.13
33506;BME280;19843;51.040;13.782;2024-03-25T09:05:02;99311.94;;;9.52;64.69
33506;BME280;19843;51.040;13.782;2024-03-25T09:07:28;99322.72;;;9.37;65.02
33506;BME280;19843;51.040;13.782;2024-03-25T09:09:54;99321.28;;;9.28;65.01
33506;BME280;19843;51.040;13.782;2024-03-25T09:12:38;99328.16;;;9.02;64.85
33506;BME280;19843;51.040;13.782;2024-03-25T09:15:04;99323.28;;;8.83;65.31
33506;BME280;19843;51.040;13.782;2024-03-25T09:17:30;99326.56;;;9.80;62.68
33506;BME280;19843;51.040;13.782;2024-03-25T09:19:55;99334.81;;;9.13;65.10
33506;BME280;19843;51.040;13.782;2024-03-25T09:22:21;99340.22;;;9.38;64.32
33506;BME280;19843;51.040;13.782;2024-03-25T09:24:46;99335.53;;;9.10;64.79
33506;BME280;19843;51.040;13.782;2024-03-25T09:27:12;99344.50;;;9.04;65.43
33506;BME280;19843;51.040;13.782;2024-03-25T09:29:37;99345.56;;;8.99;65.21
33506;BME280;19843;51.040;13.782;2024-03-25T09:32:03;99343.09;;;9.73;64.03
33506;BME280;19843;51.040;13.782;2024-03-25T09:34:29;99351.66;;;9.64;63.60
33506;BME280;19843;51.040;13.782;2024-03-25T09:36:54;99351.25;;;9.03;64.21
33506;BME280;19843;51.040;13.782;2024-03-25T09:39:20;99352.81;;;9.32;63.37
33506;BME280;19843;51.040;13.782;2024-03-25T09:41:47;99353.84;;;10.22;61.32
33506;BME280;19843;51.040;13.782;2024-03-25T09:44:13;99358.47;;;11.08;60.09
33506;BME280;19843;51.040;13.782;2024-03-25T09:46:39;99353.84;;;10.06;60.20
33506;BME280;19843;51.040;13.782;2024-03-25T09:49:04;99349.13;;;10.61;59.78
33506;BME280;19843;51.040;13.782;2024-03-25T09:51:31;99366.91;;;9.86;61.08
33506;BME280;19843;51.040;13.782;2024-03-25T09:53:56;99360.59;;;10.56;58.53
33506;BME280;19843;51.040;13.782;2024-03-25T09:56:22;99356.59;;;11.35;58.89
33506;BME280;19843;51.040;13.782;2024-03-25T09:58:48;99371.94;;;10.28;59.63
33506;BME280;19843;51.040;13.782;2024-03-25T10:01:14;99362.72;;;10.82;58.54
33506;BME280;19843;51.040;13.782;2024-03-25T10:03:40;99362.97;;;11.58;56.62
33506;BME280;19843;51.040;13.782;2024-03-25T10:06:05;99362.34;;;11.03;58.51
33506;BME280;19843;51.040;13.782;2024-03-25T10:08:31;99375.91;;;10.27;57.49
33506;BME280;19843;51.040;13.782;2024-03-25T10:10:57;99372.47;;;10.18;58.94
33506;BME280;19843;51.040;13.782;2024-03-25T10:13:22;99384.34;;;10.15;60.36
33506;BME280;19843;51.040;13.782;2024-03-25T10:15:49;99378.63;;;10.43;60.04
33506;BME280;19843;51.040;13.782;2024-03-25T10:18:14;99379.78;;;11.39;58.39
33506;BME280;19843;51.040;13.782;2024-03-25T10:20:52;99376.97;;;10.77;58.97
33506;BME280;19843;51.040;13.782;2024-03-25T10:23:22;99385.31;;;10.38;58.05
33506;BME280;19843;51.040;13.782;2024-03-25T10:25:48;99375.69;;;10.20;59.66
33506;BME280;19843;51.040;13.782;2024-03-25T10:28:14;99375.63;;;10.00;59.43
33506;BME280;19843;51.040;13.782;2024-03-25T10:30:40;99380.22;;;10.09;61.04
33506;BME280;19843;51.040;13.782;2024-03-25T10:33:06;99382.66;;;9.47;62.00
33506;BME280;19843;51.040;13.782;2024-03-25T10:35:35;99384.34;;;10.15;60.97
33506;BME280;19843;51.040;13.782;2024-03-25T10:38:02;99384.38;;;9.83;61.37
33506;BME280;19843;51.040;13.782;2024-03-25T10:40:30;99384.53;;;9.90;61.35
33506;BME280;19843;51.040;13.782;2024-03-25T10:43:03;99384.38;;;9.99;59.98
33506;BME280;19843;51.040;13.782;2024-03-25T10:45:30;99381.72;;;10.06;59.86
33506;BME280;19843;51.040;13.782;2024-03-25T10:47:57;99376.53;;;10.56;60.26
33506;BME280;19843;51.040;13.782;2024-03-25T10:50:27;99378.38;;;10.67;58.27
33506;BME280;19843;51.040;13.782;2024-03-25T10:52:54;99381.13;;;10.13;58.11
33506;BME280;19843;51.040;13.782;2024-03-25T10:55:21;99372.19;;;10.58;57.45
33506;BME280;19843;51.040;13.782;2024-03-25T10:57:48;99376.41;;;11.49;56.12
33506;BME280;19843;51.040;13.782;2024-03-25T11:00:15;99369.66;;;10.69;55.65
33506;BME280;19843;51.040;13.782;2024-03-25T11:02:43;99379.75;;;10.58;56.53
33506;BME280;19843;51.040;13.782;2024-03-25T11:05:09;99371.16;;;10.47;57.17
33506;BME280;19843;51.040;13.782;2024-03-25T11:07:36;99377.91;;;10.46;57.05
33506;BME280;19843;51.040;13.782;2024-03-25T11:10:03;99368.38;;;10.47;57.74
33506;BME280;19843;51.040;13.782;2024-03-25T11:12:41;99368.56;;;11.35;56.04
33506;BME280;19843;51.040;13.782;2024-03-25T11:15:07;99370.75;;;10.84;56.63
33506;BME280;19843;51.040;13.782;2024-03-25T11:17:34;99366.19;;;10.75;56.85
33506;BME280;19843;51.040;13.782;2024-03-25T11:20:09;99372.28;;;10.81;57.89
33506;BME280;19843;51.040;13.782;2024-03-25T11:22:36;99373.28;;;11.31;55.16
33506;BME280;19843;51.040;13.782;2024-03-25T11:25:06;99364.56;;;10.74;56.04
33506;BME280;19843;51.040;13.782;2024-03-25T11:27:35;99370.44;;;11.08;55.30
33506;BME280;19843;51.040;13.782;2024-03-25T11:30:01;99375.91;;;10.27;56.27
33506;BME280;19843;51.040;13.782;2024-03-25T11:32:27;99371.84;;;10.79;54.83
33506;BME280;19843;51.040;13.782;2024-03-25T11:34:53;99374.38;;;10.49;55.45
33506;BME280;19843;51.040;13.782;2024-03-25T11:37:19;99373.59;;;10.68;55.48
33506;BME280;19843;51.040;13.782;2024-03-25T11:39:44;99366.34;;;10.83;54.85
33506;BME280;19843;51.040;13.782;2024-03-25T11:42:10;99373.22;;;11.50;53.54
33506;BME280;19843;51.040;13.782;2024-03-25T11:44:38;99370.38;;;11.05;55.51
33506;BME280;19843;51.040;13.782;2024-03-25T11:47:04;99372.03;;;11.51;54.43
33506;BME280;19843;51.040;13.782;2024-03-25T11:49:30;99361.06;;;11.20;54.92
33506;BME280;19843;51.040;13.782;2024-03-25T11:51:59;99370.13;;;11.78;53.59
33506;BME280;19843;51.040;13.782;2024-03-25T11:54:27;99367.22;;;11.29;55.11
33506;BME280;19843;51.040;13.782;2024-03-25T11:56:53;99367.25;;;11.10;55.16
33506;BME280;19843;51.040;13.782;2024-03-25T11:59:19;99369.41;;;10.77;54.35
33506;BME280;19843;51.040;13.782;2024-03-25T12:01:45;99371.56;;;10.65;54.88
33506;BME280;19843;51.040;13.782;2024-03-25T12:04:20;99365.69;;;10.70;55.13
33506;BME280;19843;51.040;13.782;2024-03-25T12:06:45;99378.81;;;10.50;54.55
33506;BME280;19843;51.040;13.782;2024-03-25T12:09:11;99375.31;;;10.37;54.83
33506;BME280;19843;51.040;13.782;2024-03-25T12:11:55;99371.72;;;10.37;55.21
33506;BME280;19843;51.040;13.782;2024-03-25T12:14:21;99368.53;;;10.93;54.43
33506;BME280;19843;51.040;13.782;2024-03-25T12:16:47;99368.25;;;10.59;54.91
33506;BME280;19843;51.040;13.782;2024-03-25T12:19:13;99370.84;;;11.52;52.95
33506;BME280;19843;51.040;13.782;2024-03-25T12:21:38;99366.91;;;12.26;52.45
33506;BME280;19843;51.040;13.782;2024-03-25T12:24:04;99379.13;;;11.03;53.37
33506;BME280;19843;51.040;13.782;2024-03-25T12:26:31;99371.91;;;11.02;52.78
33506;BME280;19843;51.040;13.782;2024-03-25T12:28:57;99375.91;;;11.24;51.56
33506;BME280;19843;51.040;13.782;2024-03-25T12:31:23;99370.38;;;11.05;51.51
33506;BME280;19843;51.040;13.782;2024-03-25T12:33:49;99369.16;;;11.25;52.20
33506;BME280;19843;51.040;13.782;2024-03-25T12:36:15;99373.88;;;11.21;51.65
33506;BME280;19843;51.040;13.782;2024-03-25T12:38:40;99376.72;;;11.01;52.34
33506;BME280;19843;51.040;13.782;2024-03-25T12:41:07;99371.44;;;11.19;52.49
33506;BME280;19843;51.040;13.782;2024-03-25T12:43:34;99374.91;;;10.35;55.50
33506;BME280;19843;51.040;13.782;2024-03-25T12:45:59;99370.69;;;10.25;56.25
33506;BME280;19843;51.040;13.782;2024-03-25T12:48:25;99378.06;;;10.53;55.90
33506;BME280;19843;51.040;13.782;2024-03-25T12:50:52;99381.66;;;10.03;56.20
33506;BME280;19843;51.040;13.782;2024-03-25T12:53:19;99377.34;;;9.89;56.41